createdAt,value
2022-09-03T00:00:44.623Z,85.30
2022-09-03T00:03:38.159Z,81.30
2022-09-03T00:06:33.751Z,86.63
2022-09-03T00:09:28.064Z,84.55
2022-09-03T00:12:24.862Z,86.90
2022-09-03T00:15:18.463Z,88.15
2022-09-03T00:18:09.858Z,87.45
2022-09-03T00:21:08.167Z,84.65
2022-09-03T00:23:58.765Z,80.03
2022-09-03T00:26:51.790Z,79.78
2022-09-03T00:29:47.228Z,79.78
2022-09-03T00:32:42.464Z,74.28
2022-09-03T00:35:34.101Z,79.32
2022-09-03T00:38:22.250Z,84.13
2022-09-03T00:41:22.097Z,74.85
2022-09-03T00:44:34.838Z,78.43
2022-09-03T00:47:29.638Z,80.38
2022-09-03T00:50:32.378Z,79.00
2022-09-03T00:53:31.905Z,79.82
2022-09-03T00:56:28.438Z,78.25
2022-09-03T00:59:29.346Z,83.55
2022-09-03T01:02:29.944Z,81.68
2022-09-03T01:05:34.386Z,85.88
2022-09-03T01:08:39.054Z,83.22
2022-09-03T01:11:35.076Z,84.68
2022-09-03T01:14:39.112Z,80.80
2022-09-03T01:17:37.946Z,81.40
2022-09-03T01:20:39.057Z,80.47
2022-09-03T01:23:49.580Z,85.45
2022-09-03T01:26:58.366Z,80.22
2022-09-03T01:29:55.538Z,85.07
2022-09-03T01:32:52.962Z,86.57
2022-09-03T01:35:48.063Z,87.38
2022-09-03T01:38:43.207Z,90.53
2022-09-03T01:42:03.271Z,90.22
2022-09-03T01:45:12.036Z,86.07
2022-09-03T01:48:11.102Z,90.70
2022-09-03T01:51:07.433Z,91.65
2022-09-03T01:54:40.022Z,88.30
2022-09-03T01:57:42.151Z,87.80
2022-09-03T02:00:34.087Z,90.20
2022-09-03T02:03:22.512Z,89.28
2022-09-03T02:06:12.172Z,94.03
2022-09-03T02:09:00.209Z,92.85
2022-09-03T02:11:57.586Z,90.82
2022-09-03T02:14:45.814Z,92.63
2022-09-03T02:17:36.979Z,97.70
2022-09-03T02:20:29.817Z,93.95
2022-09-03T02:23:18.107Z,93.05
2022-09-03T02:26:18.018Z,93.85
2022-09-03T02:29:06.472Z,91.38
2022-09-03T02:31:54.536Z,101.40
2022-09-03T02:34:44.098Z,98.55
2022-09-03T02:37:32.144Z,93.18
2022-09-03T02:40:20.162Z,95.82
2022-09-03T02:43:15.283Z,95.00
2022-09-03T02:46:06.144Z,100.10
2022-09-03T02:48:54.979Z,99.85
2022-09-03T02:51:45.715Z,99.88
2022-09-03T02:54:36.355Z,99.85
2022-09-03T02:57:27.601Z,97.15
2022-09-03T03:00:16.573Z,97.78
2022-09-03T03:03:04.845Z,96.97
2022-09-03T03:05:55.945Z,97.95
2022-09-03T03:08:45.544Z,97.05
2022-09-03T03:11:33.897Z,101.72
2022-09-03T03:14:22.679Z,98.72
2022-09-03T03:17:10.836Z,102.57
2022-09-03T03:19:58.829Z,98.53
2022-09-03T03:22:46.834Z,100.95
2022-09-03T03:25:38.386Z,96.90
2022-09-03T03:28:27.024Z,101.65
2022-09-03T03:31:16.710Z,99.65
2022-09-03T03:34:04.767Z,99.60
2022-09-03T03:36:52.870Z,106.20
2022-09-03T03:39:40.962Z,98.88
2022-09-03T03:42:30.319Z,97.82
2022-09-03T03:45:18.454Z,98.70
2022-09-03T03:48:06.692Z,95.22
2022-09-03T03:50:55.154Z,99.68
2022-09-03T03:53:43.238Z,97.82
2022-09-03T03:56:31.277Z,96.82
2022-09-03T03:59:20.650Z,99.88
2022-09-03T04:02:08.754Z,102.68
2022-09-03T04:04:56.780Z,95.47
2022-09-03T04:07:44.975Z,102.18
2022-09-03T04:10:33.493Z,96.95
2022-09-03T04:13:21.482Z,92.53
2022-09-03T04:16:12.951Z,95.22
2022-09-03T04:19:01.567Z,100.85
2022-09-03T04:21:49.524Z,98.03
2022-09-03T04:24:37.501Z,100.13
2022-09-03T04:27:25.813Z,99.40
2022-09-03T04:30:14.301Z,99.47
2022-09-03T04:33:03.670Z,99.95
2022-09-03T04:35:51.996Z,97.95
2022-09-03T04:38:42.046Z,97.95
2022-09-03T04:41:31.975Z,100.95
2022-09-03T04:44:19.971Z,102.03
2022-09-03T04:47:08.197Z,97.15
2022-09-03T04:49:57.585Z,93.38
2022-09-03T04:52:45.573Z,99.57
2022-09-03T04:55:35.193Z,104.68
2022-09-03T04:58:23.286Z,94.40
2022-09-03T05:01:12.710Z,99.60
2022-09-03T05:04:01.548Z,100.78
2022-09-03T05:06:50.867Z,101.97
2022-09-03T05:09:38.860Z,97.43
2022-09-03T05:12:27.596Z,98.65
2022-09-03T05:15:15.674Z,103.20
2022-09-03T05:18:04.475Z,109.53
2022-09-03T05:20:59.765Z,114.63
2022-09-03T05:23:50.767Z,115.45
2022-09-03T05:26:40.331Z,121.95
2022-09-03T05:29:28.341Z,145.68
2022-09-03T05:32:17.258Z,186.90
2022-09-03T05:35:06.516Z,214.93
2022-09-03T05:37:56.054Z,256.17
2022-09-03T05:40:45.526Z,292.05
2022-09-03T05:43:34.537Z,319.10
2022-09-03T05:46:30.121Z,340.95
2022-09-03T05:49:18.770Z,370.88
2022-09-03T05:52:06.838Z,366.88
2022-09-03T05:54:54.843Z,379.90
2022-09-03T05:57:46.035Z,383.73
2022-09-03T06:00:34.103Z,402.10
2022-09-03T06:03:22.237Z,390.38
2022-09-03T06:06:13.908Z,414.17
2022-09-03T06:09:04.346Z,413.05
2022-09-03T06:11:53.820Z,408.85
2022-09-03T06:14:43.623Z,397.88
2022-09-03T06:17:31.591Z,413.40
2022-09-03T06:20:20.136Z,394.10
2022-09-03T06:23:08.129Z,399.85
2022-09-03T06:26:05.524Z,375.00
2022-09-03T06:28:55.612Z,378.17
2022-09-03T06:31:45.045Z,373.73
2022-09-03T06:34:33.092Z,379.50
2022-09-03T06:37:21.130Z,353.27
2022-09-03T06:40:14.102Z,341.40
2022-09-03T06:43:03.150Z,337.58
2022-09-03T06:45:55.850Z,319.15
2022-09-03T06:48:45.909Z,274.42
2022-09-03T06:51:34.356Z,249.20
2022-09-03T06:54:23.104Z,208.88
2022-09-03T06:57:11.070Z,203.88
2022-09-03T06:59:59.161Z,215.07
2022-09-03T07:02:48.743Z,233.82
2022-09-03T07:05:38.804Z,257.27
2022-09-03T07:08:26.882Z,274.88
2022-09-03T07:11:16.841Z,297.00
2022-09-03T07:14:05.974Z,303.23
2022-09-03T07:16:53.947Z,344.30
2022-09-03T07:19:41.956Z,347.63
2022-09-03T07:22:31.688Z,362.38
2022-09-03T07:25:19.799Z,366.23
2022-09-03T07:28:07.840Z,384.80
2022-09-03T07:31:01.859Z,393.05
2022-09-03T07:33:49.864Z,379.00
2022-09-03T07:36:40.077Z,385.60
2022-09-03T07:39:30.754Z,392.80
2022-09-03T07:42:18.853Z,393.98
2022-09-03T07:45:10.786Z,368.50
2022-09-03T07:47:59.043Z,379.55
2022-09-03T07:50:48.054Z,365.33
2022-09-03T07:53:36.953Z,373.50
2022-09-03T07:56:27.361Z,351.88
2022-09-03T07:59:15.482Z,351.25
2022-09-03T08:02:06.051Z,347.25
2022-09-03T08:04:54.042Z,333.40
2022-09-03T08:07:42.031Z,328.15
2022-09-03T08:10:31.032Z,327.52
2022-09-03T08:13:20.383Z,324.70
2022-09-03T08:16:09.423Z,324.08
2022-09-03T08:18:57.799Z,317.77
2022-09-03T08:21:45.946Z,340.10
2022-09-03T08:24:34.269Z,318.02
2022-09-03T08:27:26.105Z,320.00
2022-09-03T08:30:15.542Z,313.45
2022-09-03T08:33:04.833Z,300.00
2022-09-03T08:35:54.734Z,288.67
2022-09-03T08:38:45.423Z,317.00
2022-09-03T08:41:47.410Z,317.30
2022-09-03T08:44:47.043Z,311.90
2022-09-03T08:47:41.792Z,315.48
2022-09-03T08:50:32.786Z,320.15
2022-09-03T08:53:25.111Z,313.20
2022-09-03T08:56:20.104Z,300.35
2022-09-03T08:59:09.379Z,322.13
2022-09-03T09:02:07.032Z,324.52
2022-09-03T09:05:06.270Z,331.02
2022-09-03T09:08:06.874Z,322.95
2022-09-03T09:11:03.405Z,312.20
2022-09-03T09:14:00.104Z,315.00
2022-09-03T09:16:57.204Z,301.20
2022-09-03T09:19:55.559Z,320.42
2022-09-03T09:22:49.405Z,313.65
2022-09-03T09:25:46.059Z,315.77
2022-09-03T09:28:37.667Z,322.30
2022-09-03T09:31:26.597Z,322.45
2022-09-03T09:34:15.528Z,316.25
2022-09-03T09:37:05.549Z,321.85
2022-09-03T09:40:00.630Z,312.15
2022-09-03T09:42:48.716Z,316.70
2022-09-03T09:45:38.104Z,315.30
2022-09-03T09:48:31.255Z,326.23
2022-09-03T09:51:22.433Z,323.70
2022-09-03T09:54:18.887Z,315.52
2022-09-03T09:57:17.770Z,303.55
2022-09-03T10:00:10.441Z,350.40
2022-09-03T10:03:02.001Z,339.92
2022-09-03T10:06:02.080Z,335.42
2022-09-03T10:08:50.035Z,342.73
2022-09-03T10:11:40.417Z,337.00
2022-09-03T10:14:35.274Z,327.08
2022-09-03T10:17:37.114Z,311.10
2022-09-03T10:20:33.622Z,335.02
2022-09-03T10:23:24.746Z,333.27
2022-09-03T10:26:16.841Z,307.92
2022-09-03T10:29:08.640Z,303.25
2022-09-03T10:32:11.676Z,306.42
2022-09-03T10:35:12.628Z,279.02
2022-09-03T10:38:10.639Z,286.25
2022-09-03T10:41:09.988Z,291.17
2022-09-03T10:44:19.293Z,283.52
2022-09-03T10:47:23.570Z,239.70
2022-09-03T10:50:16.677Z,205.60
2022-09-03T10:53:11.993Z,190.25
2022-09-03T10:56:05.666Z,194.63
2022-09-03T10:59:11.717Z,199.13
2022-09-03T11:02:15.278Z,211.35
2022-09-03T11:05:10.078Z,195.68
2022-09-03T11:08:03.195Z,206.20
2022-09-03T11:10:56.086Z,176.90
2022-09-03T11:13:49.401Z,172.05
2022-09-03T11:16:43.402Z,153.15
2022-09-03T11:19:36.972Z,140.25
2022-09-03T11:22:29.714Z,128.65
2022-09-03T11:25:21.831Z,105.82
2022-09-03T11:28:23.037Z,108.82
2022-09-03T11:31:23.879Z,90.38
2022-09-03T11:34:19.625Z,87.55
2022-09-03T11:37:20.639Z,78.57
2022-09-03T11:40:16.777Z,78.03
2022-09-03T11:43:13.469Z,86.32
2022-09-03T11:46:11.873Z,82.80
2022-09-03T11:49:12.015Z,83.32
2022-09-03T11:52:02.223Z,83.10
2022-09-03T11:54:50.435Z,87.07
2022-09-03T11:57:43.697Z,77.80
2022-09-03T12:00:31.768Z,89.90
2022-09-03T12:03:26.530Z,89.75
2022-09-03T12:06:40.413Z,79.55
2022-09-03T12:09:48.818Z,57.10
2022-09-03T12:12:53.823Z,53.33
2022-09-03T12:16:26.384Z,42.95
2022-09-03T12:19:26.146Z,34.40
2022-09-03T12:22:15.688Z,33.22
2022-09-03T12:25:11.940Z,31.70
2022-09-03T12:28:04.866Z,30.38
2022-09-03T12:30:54.216Z,28.85
2022-09-03T12:33:42.941Z,31.45
2022-09-03T12:36:39.572Z,32.80
2022-09-03T12:42:37.487Z,33.72
2022-09-03T12:46:09.937Z,31.85
2022-09-03T12:48:35.667Z,28.38
2022-09-03T12:54:32.970Z,28.92
2022-09-03T12:57:24.723Z,28.80
2022-09-03T13:00:16.411Z,28.65
2022-09-03T13:03:09.087Z,26.58
2022-09-03T13:06:00.461Z,30.63
2022-09-03T13:08:51.533Z,31.50
2022-09-03T13:11:39.751Z,33.53
2022-09-03T13:14:28.393Z,35.88
2022-09-03T13:17:40.559Z,34.88
2022-09-03T13:20:42.243Z,36.13
2022-09-03T13:23:43.869Z,32.75
2022-09-03T13:26:44.333Z,33.00
2022-09-03T13:29:41.032Z,31.92
2022-09-03T13:32:38.100Z,33.03
2022-09-03T13:35:32.289Z,34.85
2022-09-03T13:38:29.004Z,31.13
2022-09-03T13:41:22.120Z,34.63
2022-09-03T13:44:15.910Z,36.53
2022-09-03T13:47:11.634Z,37.10
2022-09-03T13:50:22.912Z,37.30
2022-09-03T13:53:20.365Z,39.13
2022-09-03T13:56:27.372Z,35.30
2022-09-03T13:59:24.823Z,35.95
2022-09-03T14:02:24.016Z,37.70
2022-09-03T14:05:17.123Z,36.00
2022-09-03T14:08:14.634Z,37.83
2022-09-03T14:11:22.680Z,34.78
2022-09-03T14:14:21.503Z,33.67
2022-09-03T14:17:14.670Z,33.70
2022-09-03T14:20:07.852Z,36.90
2022-09-03T14:23:04.151Z,35.53
2022-09-03T14:25:55.681Z,34.92
2022-09-03T14:28:49.322Z,35.10
2022-09-03T14:32:01.054Z,34.00
2022-09-03T14:35:07.744Z,33.83
2022-09-03T14:38:21.590Z,37.95
2022-09-03T14:41:29.664Z,36.53
2022-09-03T14:44:53.410Z,40.03
2022-09-03T14:47:58.118Z,41.85
2022-09-03T14:50:59.572Z,42.42
2022-09-03T14:54:28.642Z,39.90
2022-09-03T14:57:33.043Z,42.17
2022-09-03T15:00:26.090Z,39.40
2022-09-03T15:03:43.314Z,43.33
2022-09-03T15:06:47.395Z,38.20
2022-09-03T15:09:41.967Z,38.50
2022-09-03T15:12:36.785Z,40.40
2022-09-03T15:15:32.414Z,41.00
2022-09-03T15:18:31.672Z,43.70
2022-09-03T15:21:27.277Z,46.70
2022-09-03T15:24:21.830Z,49.55
2022-09-03T15:27:23.131Z,53.85
2022-09-03T15:30:13.707Z,56.65
2022-09-03T15:33:11.996Z,60.25
2022-09-03T15:36:16.198Z,58.90
2022-09-03T15:39:10.337Z,59.28
2022-09-03T15:42:05.746Z,65.45
2022-09-03T15:44:57.318Z,67.30
2022-09-03T15:47:54.517Z,68.95
2022-09-03T15:50:53.838Z,71.38
2022-09-03T15:53:52.663Z,67.50
2022-09-03T15:56:47.204Z,67.40
2022-09-03T15:59:41.505Z,66.85
2022-09-03T16:02:40.972Z,66.20
2022-09-03T16:05:40.258Z,68.70
2022-09-03T16:08:39.266Z,74.75
2022-09-03T16:11:38.032Z,77.43
2022-09-03T16:14:32.096Z,72.05
2022-09-03T16:17:27.868Z,84.88
2022-09-03T16:20:20.340Z,86.68
2022-09-03T16:23:14.055Z,97.25
2022-09-03T16:26:06.221Z,104.28
2022-09-03T16:29:00.824Z,110.15
2022-09-03T16:32:06.600Z,115.03
2022-09-03T16:35:07.206Z,121.30
2022-09-03T16:38:24.010Z,117.90
2022-09-03T16:41:23.354Z,114.93
2022-09-03T16:44:21.699Z,119.30
2022-09-03T16:47:18.572Z,118.70
2022-09-03T16:50:19.385Z,128.98
2022-09-03T16:53:14.772Z,127.43
2022-09-03T16:56:34.144Z,125.63
2022-09-03T16:59:48.267Z,123.43
2022-09-03T17:02:54.768Z,131.10
2022-09-03T17:06:06.163Z,135.50
2022-09-03T17:09:03.557Z,131.60
2022-09-03T17:12:00.376Z,130.45
2022-09-03T17:15:06.734Z,133.43
2022-09-03T17:18:25.909Z,140.00
2022-09-03T17:21:23.899Z,131.65
2022-09-03T17:24:33.989Z,138.10
2022-09-03T17:27:46.339Z,144.25
2022-09-03T17:30:44.642Z,141.93
2022-09-03T17:33:49.800Z,146.93
2022-09-03T17:36:38.871Z,147.18
2022-09-03T17:39:49.249Z,144.27
2022-09-03T17:42:50.405Z,143.13
2022-09-03T17:45:48.014Z,143.35
2022-09-03T17:48:59.267Z,146.32
2022-09-03T17:51:52.927Z,147.82
2022-09-03T17:54:45.411Z,141.40
2022-09-03T17:57:41.327Z,140.48
2022-09-03T18:00:37.557Z,135.88
2022-09-03T18:03:32.870Z,136.90
2022-09-03T18:06:28.920Z,128.32
2022-09-03T18:09:28.541Z,131.82
2022-09-03T18:12:33.564Z,138.95
2022-09-03T18:15:26.581Z,141.32
2022-09-03T18:18:21.803Z,149.25
2022-09-03T18:21:33.379Z,162.60
2022-09-03T18:24:51.081Z,152.25
2022-09-03T18:28:01.015Z,166.23
2022-09-03T18:31:06.427Z,173.02
2022-09-03T18:34:12.032Z,180.00
2022-09-03T18:37:19.030Z,179.20
2022-09-03T18:40:28.354Z,196.25
2022-09-03T18:43:42.702Z,217.13
2022-09-03T18:50:38.223Z,217.63
2022-09-03T18:53:54.227Z,237.93
2022-09-03T18:57:06.150Z,230.48
2022-09-03T19:00:28.069Z,248.20
2022-09-03T19:03:54.038Z,258.35
2022-09-03T19:07:07.247Z,254.98
2022-09-03T19:10:21.202Z,278.55
2022-09-03T19:13:42.795Z,278.63
2022-09-03T19:17:01.872Z,279.30
2022-09-03T19:20:21.065Z,287.33
2022-09-03T19:23:26.836Z,283.13
2022-09-03T19:26:44.569Z,292.30
2022-09-03T19:30:07.018Z,296.38
2022-09-03T19:33:29.714Z,307.77
2022-09-03T19:36:47.463Z,333.20
2022-09-03T19:40:08.273Z,337.45
2022-09-03T19:43:20.726Z,329.52
2022-09-03T19:46:37.517Z,353.55
2022-09-03T19:49:55.898Z,348.10
2022-09-03T19:53:07.795Z,337.60
2022-09-03T19:56:15.427Z,350.85
2022-09-03T19:59:29.926Z,337.25
2022-09-03T20:02:35.683Z,322.10
2022-09-03T20:05:41.841Z,337.20
2022-09-03T20:08:49.609Z,329.00
2022-09-03T20:11:40.291Z,319.85
2022-09-03T20:14:34.197Z,321.85
2022-09-03T20:17:33.856Z,326.75
2022-09-03T20:20:32.343Z,309.42
2022-09-03T20:23:25.938Z,314.67
2022-09-03T20:26:28.829Z,308.35
2022-09-03T20:29:47.979Z,311.45
2022-09-03T20:33:05.672Z,304.42
2022-09-03T20:36:06.953Z,312.23
2022-09-03T20:39:29.069Z,322.80
2022-09-03T20:42:59.989Z,308.33
2022-09-03T20:46:06.852Z,298.10
2022-09-03T20:49:04.355Z,306.88
2022-09-03T20:51:58.427Z,295.25
2022-09-03T20:54:53.334Z,311.55
2022-09-03T20:57:49.953Z,304.27
2022-09-03T21:00:47.993Z,294.35
2022-09-03T21:03:49.944Z,305.55
2022-09-03T21:06:43.850Z,303.15
2022-09-03T21:09:40.986Z,294.65
2022-09-03T21:12:39.093Z,291.85
2022-09-03T21:15:38.112Z,314.58
2022-09-03T21:18:34.730Z,315.33
2022-09-03T21:21:36.044Z,299.98
2022-09-03T21:24:32.059Z,289.13
2022-09-03T21:27:24.148Z,310.15
2022-09-03T21:30:15.845Z,302.63
2022-09-03T21:33:07.754Z,298.80
2022-09-03T21:36:04.318Z,310.30
2022-09-03T21:39:06.738Z,290.48
2022-09-03T21:42:01.486Z,277.92
2022-09-03T21:44:56.967Z,285.73
2022-09-03T21:47:52.211Z,274.85
2022-09-03T21:50:49.566Z,305.70
2022-09-03T21:53:44.194Z,284.15
2022-09-03T21:56:50.394Z,284.48
2022-09-03T22:00:04.010Z,312.17
2022-09-03T22:03:01.171Z,294.60
2022-09-03T22:05:55.291Z,296.77
2022-09-03T22:08:49.827Z,303.15
2022-09-03T22:11:45.827Z,298.20
2022-09-03T22:14:40.338Z,293.20
2022-09-03T22:17:36.190Z,296.02
2022-09-03T22:20:26.216Z,293.17
2022-09-03T22:23:21.063Z,283.25
2022-09-03T22:26:23.939Z,299.40
2022-09-03T22:29:19.632Z,295.17
2022-09-03T22:32:24.827Z,296.90
2022-09-03T22:35:28.203Z,303.85
2022-09-03T22:38:40.430Z,307.90
2022-09-03T22:41:54.636Z,282.98
2022-09-03T22:45:13.740Z,299.50
2022-09-03T22:48:12.864Z,290.90
2022-09-03T22:51:03.274Z,293.70
2022-09-03T22:54:05.723Z,283.20
2022-09-03T22:56:55.224Z,288.15
2022-09-03T22:59:48.660Z,308.65
2022-09-03T23:02:39.187Z,305.40
2022-09-03T23:05:43.756Z,299.30
2022-09-03T23:08:36.420Z,295.98
2022-09-03T23:11:27.629Z,293.77
2022-09-03T23:14:22.280Z,301.42
2022-09-03T23:17:14.058Z,298.35
2022-09-03T23:23:00.392Z,303.83
2022-09-03T23:25:53.804Z,292.38
2022-09-03T23:28:45.911Z,298.15
2022-09-03T23:31:35.500Z,305.58
2022-09-03T23:34:23.718Z,295.70
2022-09-03T23:37:33.491Z,306.98
2022-09-03T23:40:41.284Z,285.67
2022-09-03T23:44:02.798Z,290.45
2022-09-03T23:47:01.460Z,289.50
2022-09-03T23:49:59.034Z,305.63
2022-09-03T23:53:03.799Z,301.17
2022-09-03T23:56:08.016Z,296.70
2022-09-03T23:59:09.455Z,291.88
